Time;durP1;ratioP1;P1;durP2;ratioP2;P2;SDS_P1;SDS_P2;PMS_P1;PMS_P2;Temp;Humidity;BMP_temperature;BMP_pressure;BME280_temperature;BME280_humidity;BME280_pressure;Samples;Min_cycle;Max_cycle;Signal;HPM_P1;HPM_P2
2023/06/25 00:00:44;;;;;;;10.48;7.68;;;18.40;99.90;;;;;;5110223;28;20398;-83
2023/06/25 00:03:11;;;;;;;9.48;7.13;;;18.30;99.90;;;;;;5108208;28;20050;-82
2023/06/25 00:05:36;;;;;;;9.07;7.55;;;18.30;99.90;;;;;;5111455;28;20047;-84
2023/06/25 00:08:02;;;;;;;10.90;7.78;;;18.30;99.90;;;;;;5110661;28;20043;-81
2023/06/25 00:10:28;;;;;;;15.00;7.97;;;18.30;99.90;;;;;;5110534;28;20118;-84
2023/06/25 00:12:54;;;;;;;8.73;6.80;;;18.20;99.90;;;;;;5075846;28;20258;-83
2023/06/25 00:15:19;;;;;;;9.98;7.28;;;18.20;99.90;;;;;;5108620;28;20047;-82
2023/06/25 00:17:47;;;;;;;8.73;7.07;;;18.20;99.90;;;;;;5109392;28;20394;-82
2023/06/25 00:20:17;;;;;;;9.73;7.45;;;18.10;99.90;;;;;;5109303;28;20052;-82
2023/06/25 00:22:43;;;;;;;10.10;7.80;;;18.10;99.90;;;;;;5109108;28;20047;-81
2023/06/25 00:25:09;;;;;;;11.50;8.18;;;18.10;99.90;;;;;;5109830;28;20402;-82
2023/06/25 00:27:35;;;;;;;8.57;6.57;;;18.10;99.90;;;;;;5109996;28;20050;-83
2023/06/25 00:30:02;;;;;;;9.27;7.18;;;18.10;99.90;;;;;;5110110;28;20088;-82
2023/06/25 00:32:28;;;;;;;9.98;7.38;;;18.00;99.90;;;;;;5108625;28;20035;-83
2023/06/25 00:34:57;;;;;;;10.40;7.28;;;18.00;99.90;;;;;;5109276;28;20066;-82
2023/06/25 00:37:23;;;;;;;11.18;7.53;;;18.00;99.90;;;;;;5109121;28;20047;-82
2023/06/25 00:39:49;;;;;;;9.02;6.75;;;18.00;99.90;;;;;;5108844;28;20436;-83
2023/06/25 00:42:16;;;;;;;11.45;7.22;;;18.00;99.90;;;;;;5091110;28;20048;-83
2023/06/25 00:44:42;;;;;;;11.52;7.13;;;17.90;99.90;;;;;;5091962;28;20059;-82
2023/06/25 00:47:13;;;;;;;8.55;7.65;;;17.90;99.90;;;;;;5109403;28;20039;-82
2023/06/25 00:49:45;;;;;;;9.13;6.82;;;17.90;99.90;;;;;;5114446;28;20063;-81
2023/06/25 00:52:12;;;;;;;9.50;6.70;;;17.90;99.90;;;;;;5124451;28;20495;-81
2023/06/25 00:54:44;;;;;;;12.18;7.38;;;17.80;99.90;;;;;;5121315;28;20040;-79
2023/06/25 00:57:11;;;;;;;10.48;7.53;;;17.80;99.90;;;;;;5110543;28;20047;-82
2023/06/25 00:59:42;;;;;;;9.52;7.13;;;17.80;99.90;;;;;;5108244;28;20073;-82
2023/06/25 01:02:27;;;;;;;10.27;6.38;;;17.80;99.90;;;;;;5108185;28;20058;-83
2023/06/25 01:05:11;;;;;;;11.27;7.95;;;17.80;99.90;;;;;;5108512;28;20455;-83
2023/06/25 01:07:43;;;;;;;10.00;7.25;;;17.70;99.90;;;;;;5090469;28;20101;-83
2023/06/25 01:10:10;;;;;;;7.43;6.13;;;17.70;99.90;;;;;;5108386;28;20040;-83
2023/06/25 01:12:37;;;;;;;11.95;7.40;;;17.70;99.90;;;;;;5091384;28;20071;-82
2023/06/25 01:15:04;;;;;;;11.77;7.78;;;17.70;99.90;;;;;;5090915;28;20047;-82
2023/06/25 01:17:30;;;;;;;9.35;7.07;;;17.70;99.90;;;;;;5092573;28;20050;-83
2023/06/25 01:19:56;;;;;;;10.25;6.97;;;17.60;99.90;;;;;;5107019;28;20047;-83
2023/06/25 01:22:43;;;;;;;8.10;6.57;;;17.60;99.90;;;;;;5109183;28;20108;-82
2023/06/25 01:25:11;;;;;;;12.98;7.05;;;17.60;99.90;;;;;;5109693;28;20130;-82
2023/06/25 01:27:37;;;;;;;8.48;6.85;;;17.60;99.90;;;;;;5074108;28;20122;-81
2023/06/25 01:30:06;;;;;;;7.90;5.82;;;17.60;99.90;;;;;;5108131;28;20090;-83
2023/06/25 01:32:31;;;;;;;11.68;6.95;;;17.60;99.90;;;;;;5108340;28;20432;-82
2023/06/25 01:34:57;;;;;;;8.38;6.45;;;17.60;99.90;;;;;;5110382;28;20048;-85
2023/06/25 01:37:23;;;;;;;10.95;7.75;;;17.50;99.90;;;;;;5107298;28;20072;-83
2023/06/25 01:39:52;;;;;;;7.65;6.13;;;17.50;99.90;;;;;;5117184;28;20470;-83
2023/06/25 01:42:18;;;;;;;10.80;7.90;;;17.50;99.90;;;;;;5129485;27;20039;-82
2023/06/25 01:44:44;;;;;;;10.00;7.40;;;17.50;99.90;;;;;;5111035;28;20051;-83
2023/06/25 01:47:10;;;;;;;8.38;7.00;;;17.50;99.90;;;;;;5129715;28;20203;-82
2023/06/25 01:49:35;;;;;;;9.52;7.22;;;17.50;99.90;;;;;;5110057;28;20047;-83
2023/06/25 01:52:02;;;;;;;9.48;7.88;;;17.40;99.90;;;;;;5094932;28;20061;-83
2023/06/25 01:54:28;;;;;;;11.85;6.93;;;17.40;99.90;;;;;;5128393;28;20051;-82
2023/06/25 01:56:55;;;;;;;10.32;7.32;;;17.40;99.90;;;;;;5111953;28;20550;-83
2023/06/25 01:59:21;;;;;;;10.90;7.72;;;17.30;99.90;;;;;;5110710;28;20402;-83
2023/06/25 02:01:47;;;;;;;8.98;6.63;;;17.30;99.90;;;;;;5110945;28;20039;-83
2023/06/25 02:04:13;;;;;;;8.88;6.78;;;17.30;99.90;;;;;;5111163;28;20577;-83
2023/06/25 02:06:38;;;;;;;10.20;8.02;;;17.30;99.90;;;;;;5093299;28;20043;-81
2023/06/25 02:09:04;;;;;;;14.48;7.70;;;17.20;99.90;;;;;;5111814;28;20043;-82
2023/06/25 02:11:30;;;;;;;9.23;7.18;;;17.20;99.90;;;;;;5111123;27;20047;-83
2023/06/25 02:13:55;;;;;;;9.13;6.97;;;17.20;99.90;;;;;;5133680;27;20039;-81
2023/06/25 02:16:21;;;;;;;8.70;7.57;;;17.20;99.90;;;;;;5113848;27;20088;-82
2023/06/25 02:18:47;;;;;;;11.80;7.00;;;17.20;99.90;;;;;;5114867;27;20843;-82
2023/06/25 02:21:12;;;;;;;10.15;6.82;;;17.10;99.90;;;;;;5114728;27;20121;-83
2023/06/25 02:23:38;;;;;;;9.43;7.28;;;17.10;99.90;;;;;;5132303;27;20401;-82
2023/06/25 02:26:04;;;;;;;8.15;6.60;;;17.10;99.90;;;;;;5098091;27;20717;-82
2023/06/25 02:28:29;;;;;;;9.38;6.78;;;17.10;99.90;;;;;;5114903;27;20387;-81
2023/06/25 02:30:55;;;;;;;11.65;7.38;;;17.10;99.90;;;;;;5108322;27;20043;-79
2023/06/25 02:33:20;;;;;;;9.65;7.80;;;17.10;99.90;;;;;;5112462;27;20154;-81
2023/06/25 02:35:46;;;;;;;12.70;8.18;;;17.10;99.90;;;;;;5122071;27;20116;-83
2023/06/25 02:38:12;;;;;;;10.40;7.88;;;17.00;99.90;;;;;;5080952;27;20047;-82
2023/06/25 02:40:38;;;;;;;10.95;8.18;;;17.00;99.90;;;;;;5113509;27;20066;-83
2023/06/25 02:43:03;;;;;;;10.88;7.07;;;17.00;99.90;;;;;;5097850;27;20039;-82
2023/06/25 02:45:29;;;;;;;12.20;7.97;;;17.00;99.90;;;;;;5079800;27;20040;-83
2023/06/25 02:47:55;;;;;;;9.48;8.00;;;17.00;99.90;;;;;;5098165;27;20046;-83
2023/06/25 02:50:21;;;;;;;9.60;7.20;;;17.00;99.90;;;;;;5079535;27;20031;-83
2023/06/25 02:52:46;;;;;;;10.55;7.30;;;17.00;99.90;;;;;;5097628;27;20072;-82
2023/06/25 02:55:12;;;;;;;8.93;7.25;;;16.90;99.90;;;;;;5132489;27;20055;-83
2023/06/25 02:57:37;;;;;;;8.32;6.38;;;16.90;99.90;;;;;;5114245;27;20035;-84
2023/06/25 03:00:07;;;;;;;11.95;6.95;;;16.90;99.90;;;;;;5133589;27;20092;-83
2023/06/25 03:02:33;;;;;;;12.05;7.75;;;16.90;99.90;;;;;;5131397;27;20138;-83
2023/06/25 03:04:58;;;;;;;9.35;7.68;;;16.90;99.90;;;;;;5114835;27;20130;-83
2023/06/25 03:07:24;;;;;;;11.85;8.10;;;16.90;99.90;;;;;;5113356;27;20422;-83
2023/06/25 03:09:50;;;;;;;9.80;7.50;;;16.90;99.90;;;;;;5114301;27;20066;-84
2023/06/25 03:12:15;;;;;;;13.00;8.68;;;16.90;99.90;;;;;;5113068;27;20059;-84
2023/06/25 03:14:41;;;;;;;10.35;7.75;;;16.40;99.90;;;;;;5095814;27;20139;-82
2023/06/25 03:17:07;;;;;;;9.93;8.63;;;16.90;99.90;;;;;;5133056;27;20114;-83
2023/06/25 03:19:33;;;;;;;9.18;7.38;;;16.90;99.90;;;;;;5131176;27;20086;-83
2023/06/25 03:21:59;;;;;;;13.52;8.65;;;16.80;99.90;;;;;;5114084;27;20088;-85
2023/06/25 03:24:25;;;;;;;12.55;7.47;;;16.80;99.90;;;;;;5130933;27;20579;-83
2023/06/25 03:26:51;;;;;;;9.60;7.95;;;16.70;99.90;;;;;;5132694;27;20043;-83
2023/06/25 03:29:17;;;;;;;10.77;7.43;;;16.80;99.90;;;;;;5113183;27;20100;-83
2023/06/25 03:31:43;;;;;;;10.18;8.27;;;16.80;99.90;;;;;;5113290;27;20386;-83
2023/06/25 03:34:08;;;;;;;10.75;7.55;;;16.80;99.90;;;;;;5132467;27;20188;-83
2023/06/25 03:36:34;;;;;;;10.45;8.18;;;16.80;99.90;;;;;;5094615;27;20501;-84
2023/06/25 03:39:00;;;;;;;10.48;7.88;;;16.80;99.90;;;;;;5113849;27;20138;-83
2023/06/25 03:41:26;;;;;;;10.60;7.80;;;16.70;99.90;;;;;;5094598;27;20051;-83
2023/06/25 03:43:52;;;;;;;10.27;7.85;;;16.80;99.90;;;;;;5113430;27;20135;-83
2023/06/25 03:46:17;;;;;;;11.15;8.20;;;16.80;99.90;;;;;;5095207;27;20054;-83
2023/06/25 03:48:44;;;;;;;11.15;7.63;;;16.70;99.90;;;;;;5112314;27;20413;-83
2023/06/25 03:51:10;;;;;;;9.50;7.97;;;16.80;99.90;;;;;;5113040;27;20053;-83
2023/06/25 03:53:39;;;;;;;11.77;7.50;;;16.80;99.90;;;;;;5129929;27;20485;-83
2023/06/25 03:56:05;;;;;;;12.82;8.88;;;16.80;99.90;;;;;;5131766;27;20040;-82
2023/06/25 03:58:31;;;;;;;12.23;8.52;;;16.90;99.90;;;;;;5094520;27;20046;-83
2023/06/25 04:00:57;;;;;;;12.85;8.82;;;16.90;99.90;;;;;;5096279;27;20041;-82
2023/06/25 04:03:22;;;;;;;14.45;9.50;;;16.90;99.90;;;;;;5130932;27;20047;-83
2023/06/25 04:05:51;;;;;;;14.32;10.27;;;17.00;99.90;;;;;;5114012;27;20080;-84
2023/06/25 04:08:17;;;;;;;15.57;10.13;;;17.00;99.90;;;;;;5120977;27;20047;-81
2023/06/25 04:10:42;;;;;;;14.25;10.68;;;17.00;99.90;;;;;;5129109;27;20571;-82
2023/06/25 04:13:08;;;;;;;14.98;9.73;;;17.10;99.90;;;;;;5108981;27;20043;-82
2023/06/25 04:15:34;;;;;;;15.80;10.10;;;17.10;99.90;;;;;;5130721;27;20169;-83
2023/06/25 04:17:59;;;;;;;15.43;10.40;;;17.20;99.90;;;;;;5113709;27;20054;-83
2023/06/25 04:20:27;;;;;;;13.88;10.38;;;17.30;99.90;;;;;;5111992;27;20115;-82
2023/06/25 04:22:53;;;;;;;18.55;10.60;;;16.40;99.90;;;;;;5112601;27;20054;-83
2023/06/25 04:25:19;;;;;;;13.43;9.68;;;17.40;99.90;;;;;;5131024;27;20101;-82
2023/06/25 04:27:46;;;;;;;14.52;9.88;;;17.40;99.90;;;;;;5077304;27;20497;-82
2023/06/25 04:30:12;;;;;;;14.45;9.60;;;17.50;99.90;;;;;;5113443;27;20095;-82
2023/06/25 04:32:37;;;;;;;14.73;9.13;;;17.60;99.90;;;;;;5077140;27;20051;-81
2023/06/25 04:35:05;;;;;;;14.50;9.70;;;17.60;99.90;;;;;;5130906;27;20046;-82
2023/06/25 04:37:31;;;;;;;12.70;9.45;;;17.70;99.90;;;;;;5130974;27;20117;-82
2023/06/25 04:39:56;;;;;;;12.93;9.23;;;17.70;99.90;;;;;;5111651;27;20150;-83
2023/06/25 04:42:22;;;;;;;12.50;8.65;;;17.80;99.90;;;;;;5112682;27;20047;-80
2023/06/25 04:44:49;;;;;;;15.30;9.55;;;17.80;99.90;;;;;;5129469;27;20050;-82
2023/06/25 04:47:15;;;;;;;14.57;8.90;;;17.90;99.90;;;;;;5131682;27;20043;-82
2023/06/25 04:49:41;;;;;;;15.25;8.93;;;18.00;99.90;;;;;;5129834;27;20043;-82
2023/06/25 04:52:06;;;;;;;12.82;9.65;;;18.10;99.90;;;;;;5131033;27;20080;-83
2023/06/25 04:54:32;;;;;;;12.25;8.77;;;18.10;99.90;;;;;;5129957;27;20043;-83
2023/06/25 04:56:58;;;;;;;12.85;8.82;;;18.20;99.90;;;;;;5111649;27;20065;-82
2023/06/25 04:59:25;;;;;;;11.93;7.95;;;18.30;99.90;;;;;;5130840;27;20039;-83
2023/06/25 05:01:52;;;;;;;10.80;8.43;;;18.30;99.90;;;;;;5110101;27;20046;-81
2023/06/25 05:04:18;;;;;;;11.15;8.05;;;18.40;99.90;;;;;;5112309;27;20039;-82
2023/06/25 05:06:43;;;;;;;13.55;8.80;;;18.50;99.90;;;;;;5129352;27;20401;-82
2023/06/25 05:09:09;;;;;;;12.18;8.10;;;18.60;99.90;;;;;;5113129;27;20104;-83
2023/06/25 05:11:35;;;;;;;11.45;7.55;;;18.60;99.90;;;;;;5129432;27;20069;-82
2023/06/25 05:14:01;;;;;;;15.27;7.70;;;18.70;99.90;;;;;;5130040;27;20552;-83
2023/06/25 05:16:26;;;;;;;10.05;7.75;;;18.80;99.90;;;;;;5130541;27;20078;-83
2023/06/25 05:18:52;;;;;;;13.38;8.15;;;18.90;99.90;;;;;;5128991;27;20042;-82
2023/06/25 05:21:18;;;;;;;12.63;7.05;;;18.90;99.90;;;;;;5112067;27;20407;-82
2023/06/25 05:23:45;;;;;;;10.95;6.93;;;19.10;99.90;;;;;;5128721;27;20151;-83
2023/06/25 05:26:13;;;;;;;11.38;6.90;;;19.10;99.90;;;;;;5130491;28;20083;-82
2023/06/25 05:28:39;;;;;;;12.70;7.20;;;19.20;99.90;;;;;;5110947;28;20047;-82
2023/06/25 05:31:07;;;;;;;8.40;6.05;;;19.30;99.90;;;;;;5129775;28;20074;-84
2023/06/25 05:33:34;;;;;;;8.35;6.25;;;19.40;99.90;;;;;;5130203;28;20043;-83
2023/06/25 05:36:00;;;;;;;9.93;6.18;;;19.50;99.90;;;;;;5128974;28;20077;-81
2023/06/25 05:38:25;;;;;;;7.30;5.85;;;19.60;99.90;;;;;;5111833;28;20039;-84
2023/06/25 05:40:51;;;;;;;9.68;7.53;;;19.70;99.90;;;;;;5076162;28;20058;-83
2023/06/25 05:43:17;;;;;;;10.50;8.77;;;19.80;99.90;;;;;;5111961;28;20039;-83
2023/06/25 05:45:43;;;;;;;8.60;6.60;;;19.90;99.90;;;;;;5111748;28;20047;-83
2023/06/25 05:48:08;;;;;;;7.68;5.53;;;20.00;99.90;;;;;;5118516;27;20051;-83
2023/06/25 05:50:34;;;;;;;7.90;6.00;;;20.10;99.90;;;;;;5118666;27;20046;-83
2023/06/25 05:53:00;;;;;;;8.90;5.65;;;20.20;99.90;;;;;;5133639;27;20079;-83
2023/06/25 05:55:25;;;;;;;10.20;6.35;;;20.30;99.90;;;;;;5134976;27;20043;-84
2023/06/25 05:57:51;;;;;;;8.48;6.10;;;20.30;99.90;;;;;;5132876;27;20079;-82
2023/06/25 06:00:17;;;;;;;7.15;5.88;;;20.40;99.90;;;;;;5098933;27;20108;-83
2023/06/25 06:02:43;;;;;;;7.93;5.15;;;20.50;99.90;;;;;;5133282;27;20031;-83
2023/06/25 06:05:09;;;;;;;7.80;5.47;;;20.60;99.90;;;;;;5098170;27;20513;-84
2023/06/25 06:07:34;;;;;;;8.57;5.60;;;20.70;99.90;;;;;;5133763;27;20075;-84
2023/06/25 06:10:00;;;;;;;7.10;5.15;;;20.80;99.90;;;;;;5114367;27;20107;-84
2023/06/25 06:12:26;;;;;;;8.02;5.28;;;20.90;99.90;;;;;;5098787;27;20079;-83
2023/06/25 06:14:51;;;;;;;6.07;5.25;;;21.00;99.90;;;;;;5113768;27;20039;-85
2023/06/25 06:17:17;;;;;;;6.60;5.53;;;21.00;99.90;;;;;;5098561;27;20091;-84
2023/06/25 06:19:43;;;;;;;7.55;5.20;;;21.10;99.90;;;;;;5132590;27;20051;-86
2023/06/25 06:22:08;;;;;;;8.70;5.43;;;21.20;99.90;;;;;;5081567;27;20675;-86
2023/06/25 06:24:35;;;;;;;8.43;4.55;;;21.40;99.90;;;;;;5081004;27;20051;-88
2023/06/25 06:27:00;;;;;;;6.20;4.90;;;21.40;99.90;;;;;;5097854;27;20051;-88
2023/06/25 06:29:26;;;;;;;5.70;4.63;;;21.60;99.90;;;;;;5082788;27;20035;-91
2023/06/25 06:31:52;;;;;;;5.40;4.35;;;21.70;99.90;;;;;;5080077;27;20481;-88
2023/06/25 06:34:17;;;;;;;9.38;6.50;;;21.70;99.90;;;;;;5082318;27;20040;-91
2023/06/25 06:36:43;;;;;;;5.40;4.35;;;21.80;99.90;;;;;;5066510;27;20409;-91
2023/06/25 06:39:09;;;;;;;6.55;4.78;;;21.90;99.90;;;;;;5087436;27;20039;-91
2023/06/25 06:41:35;;;;;;;5.93;4.45;;;22.00;99.90;;;;;;5067124;27;20046;-92
2023/06/25 06:44:30;;;;;;;6.30;4.72;;;22.10;99.90;;;;;;5068117;27;20036;-94
2023/06/25 06:46:56;;;;;;;8.18;4.40;;;22.20;99.90;;;;;;5066657;27;20050;-93
2023/06/25 06:49:22;;;;;;;7.13;5.43;;;22.40;99.90;;;;;;5083387;27;20553;-93
2023/06/25 06:51:48;;;;;;;5.30;4.32;;;22.50;99.90;;;;;;5068676;27;20043;-93
2023/06/25 06:54:13;;;;;;;9.77;5.57;;;22.60;99.90;;;;;;5066902;27;20051;-93
2023/06/25 06:56:39;;;;;;;9.93;7.25;;;22.70;99.90;;;;;;5066122;27;20043;-90
2023/06/25 06:59:05;;;;;;;7.97;5.50;;;22.80;99.90;;;;;;5098804;27;20043;-92
2023/06/25 07:01:32;;;;;;;10.57;6.18;;;22.90;99.90;;;;;;5113844;27;20042;-89
2023/06/25 07:03:58;;;;;;;6.80;5.10;;;22.90;99.90;;;;;;5083350;27;20046;-91
2023/06/25 07:06:23;;;;;;;7.65;5.97;;;22.90;99.90;;;;;;5098513;27;20043;-93
2023/06/25 07:08:49;;;;;;;7.50;4.97;;;23.00;99.90;;;;;;5086611;27;20070;-93
2023/06/25 07:11:18;;;;;;;7.40;4.60;;;23.10;99.90;;;;;;5064483;27;20112;-89
2023/06/25 07:13:46;;;;;;;8.30;5.50;;;23.30;99.90;;;;;;5063857;27;20443;-89
2023/06/25 07:16:12;;;;;;;6.13;5.07;;;23.50;99.90;;;;;;5114505;27;20035;-89
2023/06/25 07:18:37;;;;;;;9.02;5.68;;;23.50;99.90;;;;;;5104379;27;20135;-86
2023/06/25 07:21:03;;;;;;;8.57;5.07;;;23.60;99.90;;;;;;5118349;27;20051;-88
2023/06/25 07:23:29;;;;;;;6.68;5.43;;;23.70;99.90;;;;;;5118174;27;20051;-90
2023/06/25 07:25:55;;;;;;;11.15;5.43;;;23.80;99.90;;;;;;5134492;27;20047;-85
2023/06/25 07:28:20;;;;;;;9.60;7.00;;;23.90;99.90;;;;;;5135599;27;20471;-86
2023/06/25 07:30:46;;;;;;;7.68;6.05;;;24.00;99.90;;;;;;5132406;27;20164;-85
2023/06/25 07:33:12;;;;;;;7.70;5.97;;;24.10;99.90;;;;;;5132218;27;20375;-85
2023/06/25 07:35:38;;;;;;;8.68;5.97;;;24.10;99.90;;;;;;5095430;27;20618;-86
2023/06/25 07:38:03;;;;;;;9.25;6.55;;;24.30;99.90;;;;;;5079855;27;20050;-85
2023/06/25 07:40:29;;;;;;;8.90;5.70;;;24.40;99.90;;;;;;5093989;27;20083;-84
2023/06/25 07:42:55;;;;;;;9.57;5.97;;;24.50;99.90;;;;;;5079488;27;20043;-85
2023/06/25 07:45:20;;;;;;;7.88;6.43;;;24.60;99.90;;;;;;5130562;27;20050;-84
2023/06/25 07:47:46;;;;;;;7.85;6.68;;;24.70;99.90;;;;;;5131800;27;20039;-86
2023/06/25 07:50:12;;;;;;;7.22;5.93;;;24.80;99.90;;;;;;5096239;27;20474;-84
2023/06/25 07:52:37;;;;;;;6.75;5.72;;;24.80;99.90;;;;;;5077965;27;20118;-85
2023/06/25 07:55:03;;;;;;;8.55;6.35;;;24.90;99.90;;;;;;5113486;27;20051;-85
2023/06/25 07:57:29;;;;;;;7.65;5.95;;;25.00;99.90;;;;;;5130249;27;20043;-85
2023/06/25 07:59:55;;;;;;;8.48;6.78;;;25.10;99.90;;;;;;5131793;27;20047;-85
2023/06/25 08:02:21;;;;;;;6.75;5.68;;;25.30;99.90;;;;;;5094327;27;20047;-85
2023/06/25 08:04:48;;;;;;;7.40;6.20;;;25.40;99.90;;;;;;5130874;27;20559;-86
2023/06/25 08:07:13;;;;;;;7.55;6.82;;;25.50;99.90;;;;;;5095222;27;20085;-86
2023/06/25 08:09:40;;;;;;;8.40;6.93;;;25.60;99.90;;;;;;5110721;27;20435;-85
2023/06/25 08:12:06;;;;;;;9.18;8.18;;;25.60;99.90;;;;;;5095652;27;20047;-85
2023/06/25 08:14:32;;;;;;;8.90;7.38;;;25.60;99.90;;;;;;5093785;27;20472;-86
2023/06/25 08:16:57;;;;;;;9.13;7.20;;;25.60;99.90;;;;;;5095318;27;20078;-86
2023/06/25 08:19:23;;;;;;;8.43;6.10;;;25.80;99.90;;;;;;5076931;27;20039;-86
2023/06/25 08:21:49;;;;;;;9.30;7.47;;;25.80;99.90;;;;;;5095204;27;20111;-86
2023/06/25 08:24:14;;;;;;;9.70;6.55;;;25.90;99.90;;;;;;5095831;27;20047;-84
2023/06/25 08:26:40;;;;;;;7.07;6.38;;;26.00;99.90;;;;;;5111256;27;20502;-85
2023/06/25 08:29:06;;;;;;;14.05;7.72;;;26.10;99.90;;;;;;5078780;27;20303;-86
2023/06/25 08:31:31;;;;;;;10.80;7.55;;;26.20;99.90;;;;;;5093694;27;20047;-85
2023/06/25 08:33:57;;;;;;;7.15;6.15;;;26.30;99.90;;;;;;5130906;27;20039;-85
2023/06/25 08:36:23;;;;;;;7.60;6.45;;;26.40;99.90;;;;;;5093241;27;20045;-86
2023/06/25 08:38:48;;;;;;;10.18;6.25;;;26.50;99.90;;;;;;5095094;27;20055;-85
2023/06/25 08:41:14;;;;;;;9.15;6.32;;;26.60;99.90;;;;;;5111350;27;20051;-85
2023/06/25 08:43:40;;;;;;;5.90;5.30;;;26.70;99.90;;;;;;5076791;27;20079;-86
2023/06/25 08:46:08;;;;;;;7.90;7.10;;;26.80;99.70;;;;;;5130713;27;20043;-85
2023/06/25 08:48:35;;;;;;;8.23;7.07;;;26.80;99.30;;;;;;5110511;27;20512;-85
2023/06/25 08:51:12;;;;;;;7.70;6.78;;;26.80;98.90;;;;;;5111985;27;20092;-85
2023/06/25 08:53:37;;;;;;;7.47;6.63;;;26.90;98.80;;;;;;5110307;27;20126;-85
2023/06/25 08:56:11;;;;;;;5.82;5.28;;;27.00;98.90;;;;;;5112375;27;20069;-86
2023/06/25 08:58:36;;;;;;;6.15;5.22;;;27.10;98.60;;;;;;5113576;27;20043;-85
2023/06/25 09:01:03;;;;;;;6.68;5.65;;;27.20;98.30;;;;;;5099498;27;20039;-84
2023/06/25 09:03:29;;;;;;;8.20;5.95;;;27.30;98.20;;;;;;5128198;27;20051;-83
2023/06/25 09:05:59;;;;;;;7.10;5.85;;;27.40;97.90;;;;;;5088625;27;20035;-85
2023/06/25 09:08:26;;;;;;;6.28;5.18;;;27.50;97.60;;;;;;5130983;27;20435;-85
2023/06/25 09:10:54;;;;;;;9.35;5.05;;;27.60;97.20;;;;;;5111670;27;20114;-84
2023/06/25 09:13:24;;;;;;;10.30;5.43;;;27.70;96.70;;;;;;5095200;27;20043;-86
2023/06/25 09:15:50;;;;;;;6.57;5.45;;;27.80;96.10;;;;;;5112468;28;20134;-86
2023/06/25 09:18:22;;;;;;;4.82;4.35;;;27.80;95.90;;;;;;5092966;28;20120;-85
2023/06/25 09:20:51;;;;;;;7.47;4.43;;;27.90;95.90;;;;;;5095858;28;20371;-86
2023/06/25 09:23:21;;;;;;;5.95;4.55;;;28.00;95.60;;;;;;5129251;27;20039;-86
2023/06/25 09:25:48;;;;;;;5.85;4.20;;;28.00;95.00;;;;;;5095256;28;20051;-85
2023/06/25 09:28:13;;;;;;;5.43;4.93;;;28.10;94.70;;;;;;5094605;28;20047;-85
2023/06/25 09:30:39;;;;;;;5.75;4.30;;;28.20;94.50;;;;;;5110860;28;20043;-85
2023/06/25 09:33:05;;;;;;;4.57;4.10;;;28.20;93.90;;;;;;5111960;28;20039;-86
2023/06/25 09:35:33;;;;;;;4.10;3.30;;;28.30;93.50;;;;;;5110302;28;20043;-85
2023/06/25 09:38:00;;;;;;;4.53;3.03;;;28.30;92.50;;;;;;5095164;28;20401;-85
2023/06/25 09:40:25;;;;;;;5.93;4.15;;;28.30;91.60;;;;;;5106486;28;20081;-84
2023/06/25 09:42:56;;;;;;;4.53;3.50;;;28.30;91.00;;;;;;5091106;28;20461;-86
2023/06/25 09:45:23;;;;;;;6.63;3.50;;;28.40;90.80;;;;;;5107454;28;20059;-84
2023/06/25 09:47:52;;;;;;;5.38;3.72;;;28.50;90.40;;;;;;5108684;28;20143;-85
2023/06/25 09:50:42;;;;;;;5.22;3.47;;;28.50;90.00;;;;;;5108701;28;20028;-85
2023/06/25 09:53:15;;;;;;;3.83;2.95;;;28.60;89.50;;;;;;5075614;28;20054;-84
2023/06/25 09:55:41;;;;;;;5.18;3.17;;;28.70;88.50;;;;;;5108033;28;20104;-86
2023/06/25 09:58:08;;;;;;;4.07;3.20;;;28.80;86.50;;;;;;5108742;28;20498;-86
2023/06/25 10:00:36;;;;;;;3.50;2.83;;;28.80;85.90;;;;;;5106978;28;20515;-86
2023/06/25 10:03:03;;;;;;;4.72;3.15;;;28.80;83.90;;;;;;5091832;28;20071;-86
2023/06/25 10:05:30;;;;;;;3.97;3.58;;;28.80;83.00;;;;;;5105804;28;20103;-85
2023/06/25 10:07:56;;;;;;;6.40;3.58;;;28.80;84.40;;;;;;5090906;28;20431;-84
2023/06/25 10:10:25;;;;;;;5.35;4.07;;;29.00;85.00;;;;;;5056221;28;20481;-85
2023/06/25 10:12:52;;;;;;;5.18;4.45;;;29.10;85.40;;;;;;5090892;28;20046;-84
2023/06/25 10:15:28;;;;;;;5.32;3.30;;;29.20;84.80;;;;;;5090431;28;20150;-86
2023/06/25 10:17:56;;;;;;;3.95;3.55;;;29.30;83.80;;;;;;5106257;28;20055;-86
2023/06/25 10:20:27;;;;;;;5.93;4.38;;;28.70;83.50;;;;;;5107961;28;20051;-85
2023/06/25 10:23:04;;;;;;;4.65;4.18;;;29.40;84.10;;;;;;5105998;28;20180;-85
2023/06/25 10:25:30;;;;;;;3.92;3.53;;;29.40;83.50;;;;;;5107578;28;20082;-85
2023/06/25 10:28:11;;;;;;;4.45;3.63;;;29.40;84.50;;;;;;5072636;28;20047;-84
2023/06/25 10:30:47;;;;;;;5.43;4.15;;;29.60;84.20;;;;;;5107496;28;20101;-86
2023/06/25 10:33:15;;;;;;;4.65;4.07;;;29.60;84.20;;;;;;5110246;28;20480;-86
2023/06/25 10:35:43;;;;;;;6.00;3.67;;;29.70;83.50;;;;;;5111075;28;20071;-85
2023/06/25 10:38:09;;;;;;;5.10;3.63;;;29.70;82.00;;;;;;5112636;28;20035;-86
2023/06/25 10:40:36;;;;;;;4.38;3.97;;;29.70;82.10;;;;;;5112546;28;20450;-85
2023/06/25 10:43:02;;;;;;;5.07;3.97;;;29.80;81.00;;;;;;5104650;28;20094;-85
2023/06/25 10:45:29;;;;;;;4.45;3.13;;;29.80;81.00;;;;;;5112551;28;20451;-84
2023/06/25 10:48:10;;;;;;;4.25;3.40;;;29.90;80.80;;;;;;5128347;28;20035;-84
2023/06/25 10:50:35;;;;;;;7.78;3.83;;;30.00;79.80;;;;;;5095613;28;20059;-85
2023/06/25 10:53:03;;;;;;;6.00;3.03;;;30.00;79.60;;;;;;5110277;28;20415;-86
2023/06/25 10:55:29;;;;;;;4.57;3.28;;;30.10;78.90;;;;;;5110899;28;20042;-86
2023/06/25 10:57:55;;;;;;;3.63;2.60;;;30.20;78.30;;;;;;5060213;28;20039;-86
2023/06/25 11:00:27;;;;;;;4.03;3.20;;;30.30;77.70;;;;;;5109688;28;20083;-86
2023/06/25 11:02:54;;;;;;;5.95;3.60;;;30.40;77.60;;;;;;5094491;28;20443;-85
2023/06/25 11:05:22;;;;;;;4.35;3.05;;;30.40;77.00;;;;;;5091896;28;20105;-85
2023/06/25 11:07:54;;;;;;;4.40;3.45;;;30.50;76.40;;;;;;5112079;28;20238;-86
2023/06/25 11:10:21;;;;;;;;;;;30.50;75.50;;;;;;5093181;28;20051;-96
2023/06/25 11:12:47;;;;;;;4.30;3.40;;;30.50;74.90;;;;;;5094930;28;19919;-94
2023/06/25 11:15:13;;;;;;;4.25;3.55;;;30.50;76.50;;;;;;5077853;28;20036;-93
2023/06/25 11:17:38;;;;;;;4.38;3.25;;;30.50;76.50;;;;;;5061409;28;20042;-93
2023/06/25 11:20:04;;;;;;;3.88;3.30;;;30.60;75.80;;;;;;5062974;28;20121;-92
2023/06/25 11:22:30;;;;;;;4.82;3.20;;;30.70;75.00;;;;;;5094958;28;20264;-93
2023/06/25 11:25:05;;;;;;;4.80;3.42;;;30.70;74.30;;;;;;5095793;28;20240;-94
2023/06/25 11:27:32;;;;;;;5.28;3.95;;;30.80;74.30;;;;;;5078228;28;20050;-93
2023/06/25 11:29:58;;;;;;;6.03;3.40;;;30.80;74.70;;;;;;5094943;28;20083;-93
2023/06/25 11:32:25;;;;;;;3.97;3.58;;;30.80;75.40;;;;;;5078532;28;20040;-93
2023/06/25 11:34:53;;;;;;;5.00;3.63;;;30.80;74.80;;;;;;5077809;28;20090;-93
2023/06/25 11:37:22;;;;;;;5.38;3.90;;;30.80;74.70;;;;;;5096454;28;20478;-91
2023/06/25 11:39:50;;;;;;;5.35;3.90;;;30.80;74.30;;;;;;5097041;28;20051;-92
2023/06/25 11:42:18;;;;;;;5.95;3.47;;;30.80;73.90;;;;;;5097176;28;20458;-90
2023/06/25 11:44:44;;;;;;;5.13;3.28;;;31.00;73.70;;;;;;5091598;28;20514;-92
2023/06/25 11:47:13;;;;;;;3.35;2.97;;;31.00;73.00;;;;;;5092320;28;20495;-91
2023/06/25 11:49:39;;;;;;;5.68;3.72;;;31.10;74.50;;;;;;5075588;28;20048;-91
2023/06/25 11:52:05;;;;;;;3.25;2.95;;;31.20;73.50;;;;;;5091393;28;20043;-93
2023/06/25 11:54:31;;;;;;;4.30;2.95;;;31.30;72.80;;;;;;5094244;28;20096;-95
2023/06/25 11:56:57;;;;;;;3.95;3.20;;;31.30;72.60;;;;;;5075518;28;20062;-91
2023/06/25 11:59:23;;;;;;;2.95;2.55;;;31.40;72.30;;;;;;5093156;28;20499;-94
2023/06/25 12:01:49;;;;;;;3.47;3.03;;;31.50;72.00;;;;;;5057369;28;20375;-91
2023/06/25 12:04:14;;;;;;;3.55;3.13;;;31.60;72.70;;;;;;5075971;28;20069;-92
2023/06/25 12:06:40;;;;;;;4.20;2.72;;;31.70;71.30;;;;;;5109324;28;20529;-94
2023/06/25 12:09:06;;;;;;;2.67;2.47;;;31.70;70.60;;;;;;5074759;28;20044;-91
2023/06/25 12:11:32;;;;;;;2.85;2.58;;;31.80;69.80;;;;;;5060019;28;20126;-94
2023/06/25 12:13:58;;;;;;;3.30;2.67;;;31.80;69.30;;;;;;5075721;28;20054;-92
2023/06/25 12:16:24;;;;;;;5.93;3.08;;;31.80;69.00;;;;;;5059596;28;20040;-90
2023/06/25 12:18:50;;;;;;;3.65;2.88;;;31.70;69.00;;;;;;5056751;28;20043;-88
2023/06/25 12:21:15;;;;;;;3.10;2.75;;;31.60;68.80;;;;;;5078916;28;20530;-92
2023/06/25 12:23:41;;;;;;;3.50;2.55;;;31.60;69.00;;;;;;5076319;28;20073;-91
2023/06/25 12:26:07;;;;;;;4.35;2.75;;;31.70;68.50;;;;;;5084930;28;20413;-91
2023/06/25 12:28:32;;;;;;;3.55;2.58;;;31.70;68.50;;;;;;5089323;28;20046;-89
2023/06/25 12:30:58;;;;;;;3.15;2.65;;;31.70;68.20;;;;;;5122452;28;20049;-88
2023/06/25 12:33:24;;;;;;;5.20;2.20;;;31.70;67.70;;;;;;5107277;28;20048;-89
2023/06/25 12:35:50;;;;;;;3.58;2.67;;;31.80;68.40;;;;;;5080993;28;20051;-90
2023/06/25 12:38:15;;;;;;;4.38;1.98;;;32.00;67.70;;;;;;5091582;28;20051;-88
2023/06/25 12:40:41;;;;;;;2.28;2.08;;;32.10;66.70;;;;;;5106640;28;20135;-88